Time,TemperatureF,DewpointF,PressureIn,WindDirection,WindDirectionDegrees,WindSpeedMPH,WindSpeedGustMPH,Humidity,HourlyPrecipIn,Conditions,Clouds,dailyrainin,SoftwareType,DateUTC
2013-01-04 00:12:00,16.0,3.0,30.41,SSW,198,0.0,0.0,57,0.00,,,0.00,weatherlink.com 1.10,2013-01-04 07:12:00,
2013-01-04 00:27:00,15.3,3.0,30.41,SSW,198,0.0,1.0,58,0.00,,,0.00,weatherlink.com 1.10,2013-01-04 07:27:00,
2013-01-04 00:57:00,14.8,2.0,30.41,SSW,198,0.0,0.0,58,0.00,,,0.00,weatherlink.com 1.10,2013-01-04 07:57:00,
2013-01-04 01:12:00,15.2,2.0,30.42,SSW,198,0.0,0.0,57,0.00,,,0.00,weatherlink.com 1.10,2013-01-04 08:12:00,
2013-01-04 01:27:00,15.3,2.0,30.42,SSW,198,0.0,1.0,57,0.00,,,0.00,weatherlink.com 1.10,2013-01-04 08:27:00,
2013-01-04 01:42:00,14.5,2.0,30.43,SSW,198,0.0,0.0,59,0.00,,,0.00,weatherlink.com 1.10,2013-01-04 08:42:00,
2013-01-04 01:57:00,14.5,2.0,30.43,SSW,198,0.0,1.0,59,0.00,,,0.00,weatherlink.com 1.10,2013-01-04 08:57:00,
2013-01-04 02:12:00,14.0,3.0,30.43,SSW,198,0.0,1.0,61,0.00,,,0.00,weatherlink.com 1.10,2013-01-04 09:12:00,
2013-01-04 02:27:00,13.4,3.0,30.43,SSW,198,0.0,0.0,62,0.00,,,0.00,weatherlink.com 1.10,2013-01-04 09:27:00,
2013-01-04 02:42:00,13.3,2.0,30.43,SSW,198,0.0,1.0,62,0.00,,,0.00,weatherlink.com 1.10,2013-01-04 09:42:00,
2013-01-04 03:12:00,13.0,3.0,30.42,SSW,198,0.0,1.0,65,0.00,,,0.00,weatherlink.com 1.10,2013-01-04 10:12:00,
2013-01-04 03:27:00,13.2,3.0,30.42,SSW,198,0.0,1.0,64,0.00,,,0.00,weatherlink.com 1.10,2013-01-04 10:27:00,
2013-01-04 03:42:00,13.4,3.0,30.42,SSW,198,0.0,1.0,63,0.00,,,0.00,weatherlink.com 1.10,2013-01-04 10:42:00,
2013-01-04 03:57:00,13.6,3.0,30.42,SSW,198,0.0,1.0,63,0.00,,,0.00,weatherlink.com 1.10,2013-01-04 10:57:00,
2013-01-04 04:12:00,13.7,3.0,30.42,SSW,198,0.0,1.0,63,0.00,,,0.00,weatherlink.com 1.10,2013-01-04 11:12:00,
2013-01-04 04:27:00,14.2,3.0,30.42,SSW,198,0.0,1.0,61,0.00,,,0.00,weatherlink.com 1.10,2013-01-04 11:27:00,
2013-01-04 04:42:00,14.4,3.0,30.42,SSW,198,0.0,1.0,60,0.00,,,0.00,weatherlink.com 1.10,2013-01-04 11:42:00,
2013-01-04 04:57:00,14.4,2.0,30.42,SSW,198,0.0,1.0,59,0.00,,,0.00,weatherlink.com 1.10,2013-01-04 11:57:00,
2013-01-04 05:12:00,14.0,2.0,30.41,SSW,198,0.0,1.0,60,0.00,,,0.00,weatherlink.com 1.10,2013-01-04 12:12:00,
2013-01-04 05:27:00,13.8,3.0,30.41,SSW,198,0.0,0.0,62,0.00,,,0.00,weatherlink.com 1.10,2013-01-04 12:27:00,
2013-01-04 05:42:00,13.0,2.0,30.41,SSW,198,0.0,1.0,62,0.00,,,0.00,weatherlink.com 1.10,2013-01-04 12:42:00,
2013-01-04 05:58:00,12.8,3.0,30.41,SSW,198,0.0,0.0,66,0.00,,,0.00,weatherlink.com 1.10,2013-01-04 12:58:00,
2013-01-04 06:13:00,12.6,3.0,30.41,SSW,198,0.0,0.0,65,0.00,,,0.00,weatherlink.com 1.10,2013-01-04 13:13:00,
2013-01-04 06:28:00,12.6,3.0,30.40,SSW,198,0.0,1.0,66,0.00,,,0.00,weatherlink.com 1.10,2013-01-04 13:28:00,
2013-01-04 06:58:00,13.3,4.0,30.40,SSW,198,0.0,1.0,65,0.00,,,0.00,weatherlink.com 1.10,2013-01-04 13:58:00,
2013-01-04 07:13:00,13.9,3.0,30.40,SSW,198,0.0,1.0,63,0.00,,,0.00,weatherlink.com 1.10,2013-01-04 14:13:00,
2013-01-04 07:28:00,14.2,3.0,30.40,SSW,198,0.0,1.0,62,0.00,,,0.00,weatherlink.com 1.10,2013-01-04 14:28:00,
2013-01-04 07:58:00,15.4,4.0,30.40,SSW,198,0.0,1.0,60,0.00,,,0.00,weatherlink.com 1.10,2013-01-04 14:58:00,
2013-01-04 08:13:00,17.5,4.0,30.39,SSW,198,0.0,1.0,56,0.00,,,0.00,weatherlink.com 1.10,2013-01-04 15:13:00,
2013-01-04 08:28:00,19.6,4.0,30.39,SSW,198,1.0,3.0,50,0.00,,,0.00,weatherlink.com 1.10,2013-01-04 15:28:00,
2013-01-04 08:43:00,22.3,4.0,30.39,SW,231,1.0,3.0,46,0.00,,,0.00,weatherlink.com 1.10,2013-01-04 15:43:00,
2013-01-04 08:58:00,24.7,5.0,30.39,SSW,198,0.0,4.0,43,0.00,,,0.00,weatherlink.com 1.10,2013-01-04 15:58:00,
2013-01-04 09:13:00,26.8,5.0,30.39,SSW,193,0.0,5.0,39,0.00,,,0.00,weatherlink.com 1.10,2013-01-04 16:13:00,
2013-01-04 09:28:00,28.5,6.0,30.39,SSW,194,1.0,3.0,38,0.00,,,0.00,weatherlink.com 1.10,2013-01-04 16:28:00,
2013-01-04 09:43:00,31.8,8.0,30.39,SSW,195,2.0,3.0,36,0.00,,,0.00,weatherlink.com 1.10,2013-01-04 16:43:00,
2013-01-04 09:58:00,33.8,7.0,30.39,SSE,159,0.0,4.0,32,0.00,,,0.00,weatherlink.com 1.10,2013-01-04 16:58:00,
2013-01-04 10:13:00,34.1,6.0,30.39,SSW,200,3.0,5.0,31,0.00,,,0.00,weatherlink.com 1.10,2013-01-04 17:13:00,
2013-01-04 10:28:00,35.2,4.0,30.38,South,172,0.0,5.0,27,0.00,,,0.00,weatherlink.com 1.10,2013-01-04 17:28:00,
2013-01-04 10:43:00,36.4,5.0,30.37,SSW,201,0.0,5.0,27,0.00,,,0.00,weatherlink.com 1.10,2013-01-04 17:43:00,
2013-01-04 11:14:00,39.8,5.0,30.35,SSW,196,2.0,4.0,23,0.00,,,0.00,weatherlink.com 1.10,2013-01-04 18:14:00,
2013-01-04 11:29:00,41.7,3.0,30.34,South,189,3.0,4.0,20,0.00,,,0.00,weatherlink.com 1.10,2013-01-04 18:29:00,
2013-01-04 11:44:00,43.4,0.0,30.32,SSW,197,1.0,5.0,16,0.00,,,0.00,weatherlink.com 1.10,2013-01-04 18:44:00,
2013-01-04 11:59:00,44.1,0.0,30.31,South,191,2.0,5.0,16,0.00,,,0.00,weatherlink.com 1.10,2013-01-04 18:59:00,
2013-01-04 12:14:00,45.1,1.0,30.29,South,188,0.0,3.0,16,0.00,,,0.00,weatherlink.com 1.10,2013-01-04 19:14:00,
2013-01-04 12:29:00,46.3,1.0,30.27,SSW,205,0.0,3.0,15,0.00,,,0.00,weatherlink.com 1.10,2013-01-04 19:29:00,
2013-01-04 12:44:00,46.8,0.0,30.26,ESE,121,1.0,3.0,14,0.00,,,0.00,weatherlink.com 1.10,2013-01-04 19:44:00,
2013-01-04 13:00:00,47.2,0.0,30.25,South,169,0.0,5.0,14,0.00,,,0.00,weatherlink.com 1.10,2013-01-04 20:00:00,
2013-01-04 13:15:00,47.9,1.0,30.23,SSW,207,0.0,2.0,14,0.00,,,0.00,weatherlink.com 1.10,2013-01-04 20:15:00,
2013-01-04 13:30:00,47.9,1.0,30.23,East,79,0.0,3.0,14,0.00,,,0.00,weatherlink.com 1.10,2013-01-04 20:30:00,
2013-01-04 13:45:00,47.2,2.0,30.22,ENE,76,1.0,5.0,15,0.00,,,0.00,weatherlink.com 1.10,2013-01-04 20:45:00,
2013-01-04 14:00:00,47.4,2.0,30.21,NE,34,0.0,5.0,15,0.00,,,0.00,weatherlink.com 1.10,2013-01-04 21:00:00,
2013-01-04 14:15:00,47.7,3.0,30.20,NE,41,0.0,4.0,16,0.00,,,0.00,weatherlink.com 1.10,2013-01-04 21:15:00,
2013-01-04 14:30:00,47.2,3.0,30.20,NE,38,4.0,4.0,16,0.00,,,0.00,weatherlink.com 1.10,2013-01-04 21:30:00,
2013-01-04 14:45:00,46.9,3.0,30.20,NE,39,1.0,7.0,16,0.00,,,0.00,weatherlink.com 1.10,2013-01-04 21:45:00,
2013-01-04 15:00:00,46.8,4.0,30.20,NNE,25,3.0,6.0,17,0.00,,,0.00,weatherlink.com 1.10,2013-01-04 22:00:00,
2013-01-04 15:15:00,47.0,4.0,30.19,NE,34,2.0,4.0,17,0.00,,,0.00,weatherlink.com 1.10,2013-01-04 22:15:00,
2013-01-04 15:30:00,46.7,4.0,30.19,NNE,33,4.0,6.0,17,0.00,,,0.00,weatherlink.com 1.10,2013-01-04 22:30:00,
2013-01-04 15:45:00,46.3,5.0,30.19,NE,46,1.0,6.0,18,0.00,,,0.00,weatherlink.com 1.10,2013-01-04 22:45:00,
2013-01-04 16:00:00,45.9,6.0,30.19,NE,34,1.0,4.0,19,0.00,,,0.00,weatherlink.com 1.10,2013-01-04 23:00:00,
2013-01-04 16:16:00,45.0,6.0,30.19,NE,34,0.0,4.0,20,0.00,,,0.00,weatherlink.com 1.10,2013-01-04 23:16:00,
2013-01-04 16:31:00,43.7,6.0,30.19,NE,38,0.0,4.0,21,0.00,,,0.00,weatherlink.com 1.10,2013-01-04 23:31:00,
2013-01-04 16:46:00,42.4,6.0,30.19,NE,39,0.0,2.0,22,0.00,,,0.00,weatherlink.com 1.10,2013-01-04 23:46:00,
2013-01-04 17:01:00,41.1,6.0,30.19,NE,39,0.0,1.0,23,0.00,,,0.00,weatherlink.com 1.10,2013-01-05 00:01:00,
2013-01-04 17:16:00,39.2,7.0,30.20,NE,39,0.0,0.0,26,0.00,,,0.00,weatherlink.com 1.10,2013-01-05 00:16:00,
2013-01-04 17:31:00,36.5,8.0,30.20,NE,39,0.0,0.0,31,0.00,,,0.00,weatherlink.com 1.10,2013-01-05 00:31:00,
2013-01-04 17:46:00,34.3,9.0,30.20,NE,39,0.0,1.0,35,0.00,,,0.00,weatherlink.com 1.10,2013-01-05 00:46:00,
2013-01-04 18:01:00,32.4,10.0,30.20,NE,39,0.0,0.0,40,0.00,,,0.00,weatherlink.com 1.10,2013-01-05 01:01:00,
2013-01-04 18:16:00,31.0,11.0,30.20,NE,39,0.0,1.0,43,0.00,,,0.00,weatherlink.com 1.10,2013-01-05 01:16:00,
2013-01-04 18:31:00,29.6,11.0,30.20,NE,39,0.0,0.0,45,0.00,,,0.00,weatherlink.com 1.10,2013-01-05 01:31:00,
2013-01-04 18:46:00,28.8,11.0,30.20,NE,39,0.0,0.0,48,0.00,,,0.00,weatherlink.com 1.10,2013-01-05 01:46:00,
2013-01-04 19:01:00,27.9,11.0,30.20,NE,39,0.0,0.0,49,0.00,,,0.00,weatherlink.com 1.10,2013-01-05 02:01:00,
2013-01-04 19:16:00,27.1,11.0,30.20,NE,39,0.0,0.0,50,0.00,,,0.00,weatherlink.com 1.10,2013-01-05 02:16:00,
2013-01-04 19:31:00,26.5,10.0,30.20,NE,39,0.0,0.0,51,0.00,,,0.00,weatherlink.com 1.10,2013-01-05 02:31:00,
2013-01-04 19:47:00,25.9,10.0,30.20,NE,39,0.0,0.0,52,0.00,,,0.00,weatherlink.com 1.10,2013-01-05 02:47:00,
2013-01-04 20:02:00,25.4,10.0,30.20,NE,39,0.0,0.0,53,0.00,,,0.00,weatherlink.com 1.10,2013-01-05 03:02:00,
2013-01-04 20:17:00,24.9,10.0,30.20,NE,39,0.0,1.0,53,0.00,,,0.00,weatherlink.com 1.10,2013-01-05 03:17:00,
2013-01-04 20:32:00,24.5,10.0,30.20,NE,39,0.0,0.0,54,0.00,,,0.00,weatherlink.com 1.10,2013-01-05 03:32:00,
2013-01-04 20:47:00,24.1,10.0,30.20,NE,39,0.0,0.0,56,0.00,,,0.00,weatherlink.com 1.10,2013-01-05 03:47:00,
2013-01-04 21:02:00,23.6,10.0,30.20,NE,39,0.0,0.0,57,0.00,,,0.00,weatherlink.com 1.10,2013-01-05 04:02:00,
2013-01-04 21:17:00,23.6,10.0,30.20,NE,39,0.0,0.0,56,0.00,,,0.00,weatherlink.com 1.10,2013-01-05 04:17:00,
2013-01-04 21:32:00,23.1,10.0,30.20,NE,39,0.0,1.0,57,0.00,,,0.00,weatherlink.com 1.10,2013-01-05 04:32:00,
2013-01-04 21:47:00,23.7,10.0,30.20,NE,34,1.0,2.0,56,0.00,,,0.00,weatherlink.com 1.10,2013-01-05 04:47:00,
2013-01-04 22:02:00,26.9,10.0,30.21,North,9,0.0,2.0,50,0.00,,,0.00,weatherlink.com 1.10,2013-01-05 05:02:00,
2013-01-04 22:17:00,27.5,10.0,30.21,North,360,0.0,1.0,48,0.00,,,0.00,weatherlink.com 1.10,2013-01-05 05:17:00,
2013-01-04 22:32:00,26.2,10.0,30.21,North,360,0.0,0.0,50,0.00,,,0.00,weatherlink.com 1.10,2013-01-05 05:32:00,
2013-01-04 22:47:00,24.3,10.0,30.22,North,360,0.0,0.0,54,0.00,,,0.00,weatherlink.com 1.10,2013-01-05 05:47:00,
2013-01-04 23:18:00,22.5,9.0,30.23,North,360,0.0,1.0,57,0.00,,,0.00,weatherlink.com 1.10,2013-01-05 06:18:00,
2013-01-04 23:33:00,21.6,10.0,30.23,North,360,0.0,0.0,60,0.00,,,0.00,weatherlink.com 1.10,2013-01-05 06:33:00,
2013-01-04 23:48:00,21.1,9.0,30.24,North,360,0.0,0.0,61,0.00,,,0.00,weatherlink.com 1.10,2013-01-05 06:48:00,